sensor_id;sensor_type;location;lat;lon;timestamp;temperature;humidity
67194;DHT22;54121;53.508;49.422;2023-04-24T00:01:33;17.10;25.90
67194;DHT22;54121;53.508;49.422;2023-04-24T00:04:05;17.10;26.10
67194;DHT22;54121;53.508;49.422;2023-04-24T00:06:33;17.10;26.00
67194;DHT22;54121;53.508;49.422;2023-04-24T00:09:02;17.10;25.90
67194;DHT22;54121;53.508;49.422;2023-04-24T00:11:29;17.20;26.00
67194;DHT22;54121;53.508;49.422;2023-04-24T00:13:58;15.70;25.30
67194;DHT22;54121;53.508;49.422;2023-04-24T00:16:27;17.10;26.10
67194;DHT22;54121;53.508;49.422;2023-04-24T00:18:58;17.10;26.20
67194;DHT22;54121;53.508;49.422;2023-04-24T00:21:27;17.00;26.50
67194;DHT22;54121;53.508;49.422;2023-04-24T00:23:53;16.90;26.50
67194;DHT22;54121;53.508;49.422;2023-04-24T00:26:20;17.00;26.60
67194;DHT22;54121;53.508;49.422;2023-04-24T00:28:49;17.00;26.50
67194;DHT22;54121;53.508;49.422;2023-04-24T00:31:18;16.90;26.50
67194;DHT22;54121;53.508;49.422;2023-04-24T00:33:47;16.90;26.50
67194;DHT22;54121;53.508;49.422;2023-04-24T00:36:14;16.90;26.50
67194;DHT22;54121;53.508;49.422;2023-04-24T00:38:40;14.70;26.20
67194;DHT22;54121;53.508;49.422;2023-04-24T00:41:09;16.50;27.40
67194;DHT22;54121;53.508;49.422;2023-04-24T00:43:39;15.30;26.30
67194;DHT22;54121;53.508;49.422;2023-04-24T00:46:08;16.70;27.00
67194;DHT22;54121;53.508;49.422;2023-04-24T00:48:34;16.70;27.00
67194;DHT22;54121;53.508;49.422;2023-04-24T00:51:03;16.70;26.90
67194;DHT22;54121;53.508;49.422;2023-04-24T00:53:31;16.70;26.90
67194;DHT22;54121;53.508;49.422;2023-04-24T00:56:01;15.90;27.00
67194;DHT22;54121;53.508;49.422;2023-04-24T00:58:28;16.50;27.40
67194;DHT22;54121;53.508;49.422;2023-04-24T01:01:00;16.70;26.90
67194;DHT22;54121;53.508;49.422;2023-04-24T01:03:32;16.60;27.10
67194;DHT22;54121;53.508;49.422;2023-04-24T01:06:01;16.50;27.10
67194;DHT22;54121;53.508;49.422;2023-04-24T01:08:32;16.60;27.20
67194;DHT22;54121;53.508;49.422;2023-04-24T01:10:58;16.60;27.00
67194;DHT22;54121;53.508;49.422;2023-04-24T01:13:25;16.70;27.00
67194;DHT22;54121;53.508;49.422;2023-04-24T01:15:51;15.30;27.20
67194;DHT22;54121;53.508;49.422;2023-04-24T01:18:22;16.20;27.80
67194;DHT22;54121;53.508;49.422;2023-04-24T01:20:53;16.30;27.70
67194;DHT22;54121;53.508;49.422;2023-04-24T01:23:22;14.20;27.20
67194;DHT22;54121;53.508;49.422;2023-04-24T01:25:50;16.40;27.60
67194;DHT22;54121;53.508;49.422;2023-04-24T01:28:22;16.40;27.70
67194;DHT22;54121;53.508;49.422;2023-04-24T01:30:48;15.40;27.30
67194;DHT22;54121;53.508;49.422;2023-04-24T01:33:18;16.40;27.90
67194;DHT22;54121;53.508;49.422;2023-04-24T01:35:49;16.20;28.30
67194;DHT22;54121;53.508;49.422;2023-04-24T01:38:16;14.90;27.80
67194;DHT22;54121;53.508;49.422;2023-04-24T01:40:47;16.30;28.00
67194;DHT22;54121;53.508;49.422;2023-04-24T01:43:15;16.30;28.00
67194;DHT22;54121;53.508;49.422;2023-04-24T01:45:45;14.50;27.10
67194;DHT22;54121;53.508;49.422;2023-04-24T01:48:11;16.50;27.60
67194;DHT22;54121;53.508;49.422;2023-04-24T01:50:43;16.50;27.60
67194;DHT22;54121;53.508;49.422;2023-04-24T01:53:12;16.40;28.00
67194;DHT22;54121;53.508;49.422;2023-04-24T01:55:39;16.50;27.80
67194;DHT22;54121;53.508;49.422;2023-04-24T01:58:05;16.90;27.30
67194;DHT22;54121;53.508;49.422;2023-04-24T02:00:36;17.00;27.10
67194;DHT22;54121;53.508;49.422;2023-04-24T02:03:05;17.10;26.90
67194;DHT22;54121;53.508;49.422;2023-04-24T02:05:34;17.40;26.70
67194;DHT22;54121;53.508;49.422;2023-04-24T02:08:05;18.00;25.70
67194;DHT22;54121;53.508;49.422;2023-04-24T02:10:34;18.80;24.70
67194;DHT22;54121;53.508;49.422;2023-04-24T02:13:03;19.20;24.00
67194;DHT22;54121;53.508;49.422;2023-04-24T02:15:30;19.70;23.20
67194;DHT22;54121;53.508;49.422;2023-04-24T02:17:59;20.40;22.50
67194;DHT22;54121;53.508;49.422;2023-04-24T02:20:26;20.10;21.50
67194;DHT22;54121;53.508;49.422;2023-04-24T02:22:57;20.00;20.50
67194;DHT22;54121;53.508;49.422;2023-04-24T02:25:24;22.00;20.40
67194;DHT22;54121;53.508;49.422;2023-04-24T02:27:52;22.40;19.90
67194;DHT22;54121;53.508;49.422;2023-04-24T02:30:21;21.80;19.00
67194;DHT22;54121;53.508;49.422;2023-04-24T02:32:50;23.30;18.70
67194;DHT22;54121;53.508;49.422;2023-04-24T02:35:19;23.40;18.40
67194;DHT22;54121;53.508;49.422;2023-04-24T02:37:46;24.30;17.50
67194;DHT22;54121;53.508;49.422;2023-04-24T02:40:13;24.50;17.20
67194;DHT22;54121;53.508;49.422;2023-04-24T02:42:39;24.90;16.80
67194;DHT22;54121;53.508;49.422;2023-04-24T02:45:09;25.40;16.30
67194;DHT22;54121;53.508;49.422;2023-04-24T02:47:38;24.90;15.70
67194;DHT22;54121;53.508;49.422;2023-04-24T02:50:08;26.20;15.50
67194;DHT22;54121;53.508;49.422;2023-04-24T02:52:35;26.40;15.30
67194;DHT22;54121;53.508;49.422;2023-04-24T02:55:04;27.00;14.80
67194;DHT22;54121;53.508;49.422;2023-04-24T02:57:36;26.80;14.40
67194;DHT22;54121;53.508;49.422;2023-04-24T03:00:05;27.80;14.30
67194;DHT22;54121;53.508;49.422;2023-04-24T03:02:35;28.30;13.80
67194;DHT22;54121;53.508;49.422;2023-04-24T03:05:02;28.50;13.40
67194;DHT22;54121;53.508;49.422;2023-04-24T03:07:30;28.50;13.40
67194;DHT22;54121;53.508;49.422;2023-04-24T03:09:59;29.00;13.00
67194;DHT22;54121;53.508;49.422;2023-04-24T03:12:28;29.10;12.90
67194;DHT22;54121;53.508;49.422;2023-04-24T03:14:54;28.60;11.90
67194;DHT22;54121;53.508;49.422;2023-04-24T03:17:21;30.00;12.10
67194;DHT22;54121;53.508;49.422;2023-04-24T03:19:53;30.50;11.90
67194;DHT22;54121;53.508;49.422;2023-04-24T03:22:22;31.10;11.30
67194;DHT22;54121;53.508;49.422;2023-04-24T03:24:50;31.50;11.10
67194;DHT22;54121;53.508;49.422;2023-04-24T03:27:17;31.80;10.70
67194;DHT22;54121;53.508;49.422;2023-04-24T03:29:43;32.70;10.20
67194;DHT22;54121;53.508;49.422;2023-04-24T03:32:12;32.90;9.80
67194;DHT22;54121;53.508;49.422;2023-04-24T03:34:43;33.50;9.60
67194;DHT22;54121;53.508;49.422;2023-04-24T03:37:10;32.60;10.30
67194;DHT22;54121;53.508;49.422;2023-04-24T03:39:36;32.70;10.10
67194;DHT22;54121;53.508;49.422;2023-04-24T03:42:03;33.90;9.50
67194;DHT22;54121;53.508;49.422;2023-04-24T03:44:32;33.40;9.70
67194;DHT22;54121;53.508;49.422;2023-04-24T03:46:58;33.70;9.10
67194;DHT22;54121;53.508;49.422;2023-04-24T03:49:25;33.50;9.60
67194;DHT22;54121;53.508;49.422;2023-04-24T03:51:55;32.70;8.30
67194;DHT22;54121;53.508;49.422;2023-04-24T03:54:23;35.00;8.70
67194;DHT22;54121;53.508;49.422;2023-04-24T03:56:50;35.40;8.40
67194;DHT22;54121;53.508;49.422;2023-04-24T03:59:17;33.90;7.40
67194;DHT22;54121;53.508;49.422;2023-04-24T04:01:44;35.10;8.50
67194;DHT22;54121;53.508;49.422;2023-04-24T04:04:14;35.80;8.10
67194;DHT22;54121;53.508;49.422;2023-04-24T04:06:43;36.00;7.90
67194;DHT22;54121;53.508;49.422;2023-04-24T04:09:12;36.60;7.50
67194;DHT22;54121;53.508;49.422;2023-04-24T04:11:41;36.60;7.30
67194;DHT22;54121;53.508;49.422;2023-04-24T04:14:08;35.80;8.00
67194;DHT22;54121;53.508;49.422;2023-04-24T04:16:34;36.60;7.50
67194;DHT22;54121;53.508;49.422;2023-04-24T04:19:02;37.30;7.10
67194;DHT22;54121;53.508;49.422;2023-04-24T04:21:29;37.40;7.00
67194;DHT22;54121;53.508;49.422;2023-04-24T04:23:59;37.80;6.80
67194;DHT22;54121;53.508;49.422;2023-04-24T04:26:28;37.00;5.80
67194;DHT22;54121;53.508;49.422;2023-04-24T04:28:58;37.30;7.00
67194;DHT22;54121;53.508;49.422;2023-04-24T04:31:29;38.10;6.60
67194;DHT22;54121;53.508;49.422;2023-04-24T04:33:56;38.80;6.20
67194;DHT22;54121;53.508;49.422;2023-04-24T04:36:22;39.00;6.10
67194;DHT22;54121;53.508;49.422;2023-04-24T04:38:52;39.10;6.10
67194;DHT22;54121;53.508;49.422;2023-04-24T04:41:20;39.50;5.80
67194;DHT22;54121;53.508;49.422;2023-04-24T04:43:52;38.10;5.90
67194;DHT22;54121;53.508;49.422;2023-04-24T04:46:18;39.40;5.90
67194;DHT22;54121;53.508;49.422;2023-04-24T04:48:45;38.60;6.20
67194;DHT22;54121;53.508;49.422;2023-04-24T04:51:12;39.20;5.90
67194;DHT22;54121;53.508;49.422;2023-04-24T04:53:39;39.60;5.70
67194;DHT22;54121;53.508;49.422;2023-04-24T04:56:08;39.90;5.60
67194;DHT22;54121;53.508;49.422;2023-04-24T04:58:39;39.50;5.80
67194;DHT22;54121;53.508;49.422;2023-04-24T05:01:05;40.20;5.20
67194;DHT22;54121;53.508;49.422;2023-04-24T05:03:35;39.10;4.60
67194;DHT22;54121;53.508;49.422;2023-04-24T05:06:02;39.50;5.60
67194;DHT22;54121;53.508;49.422;2023-04-24T05:08:31;39.50;5.50
67194;DHT22;54121;53.508;49.422;2023-04-24T05:10:58;40.40;5.00
67194;DHT22;54121;53.508;49.422;2023-04-24T05:13:24;39.20;5.50
67194;DHT22;54121;53.508;49.422;2023-04-24T05:15:51;40.00;5.10
67194;DHT22;54121;53.508;49.422;2023-04-24T05:18:19;39.70;5.20
67194;DHT22;54121;53.508;49.422;2023-04-24T05:20:50;40.30;5.00
67194;DHT22;54121;53.508;49.422;2023-04-24T05:23:17;40.30;4.90
67194;DHT22;54121;53.508;49.422;2023-04-24T05:25:48;40.70;4.80
67194;DHT22;54121;53.508;49.422;2023-04-24T05:28:17;40.70;4.60
67194;DHT22;54121;53.508;49.422;2023-04-24T05:30:47;41.20;5.50
67194;DHT22;54121;53.508;49.422;2023-04-24T05:33:13;40.60;4.60
67194;DHT22;54121;53.508;49.422;2023-04-24T05:35:42;41.00;4.60
67194;DHT22;54121;53.508;49.422;2023-04-24T05:38:12;41.30;4.30
67194;DHT22;54121;53.508;49.422;2023-04-24T05:40:39;40.30;4.70
67194;DHT22;54121;53.508;49.422;2023-04-24T05:43:06;40.90;4.50
67194;DHT22;54121;53.508;49.422;2023-04-24T05:45:34;41.20;4.40
67194;DHT22;54121;53.508;49.422;2023-04-24T05:48:02;41.40;4.40
67194;DHT22;54121;53.508;49.422;2023-04-24T05:50:31;41.70;4.30
67194;DHT22;54121;53.508;49.422;2023-04-24T05:53:02;41.30;4.40
67194;DHT22;54121;53.508;49.422;2023-04-24T05:55:35;40.40;5.00
67194;DHT22;54121;53.508;49.422;2023-04-24T05:58:04;41.10;4.70
67194;DHT22;54121;53.508;49.422;2023-04-24T06:00:30;40.70;4.70
67194;DHT22;54121;53.508;49.422;2023-04-24T06:02:56;40.30;5.00
67194;DHT22;54121;53.508;49.422;2023-04-24T06:05:25;39.70;5.50
67194;DHT22;54121;53.508;49.422;2023-04-24T06:07:54;40.90;4.90
67194;DHT22;54121;53.508;49.422;2023-04-24T06:10:22;40.20;5.20
67194;DHT22;54121;53.508;49.422;2023-04-24T06:12:51;40.60;4.90
67194;DHT22;54121;53.508;49.422;2023-04-24T06:15:17;41.10;4.60
67194;DHT22;54121;53.508;49.422;2023-04-24T06:17:44;41.20;4.70
67194;DHT22;54121;53.508;49.422;2023-04-24T06:20:10;40.00;5.30
67194;DHT22;54121;53.508;49.422;2023-04-24T06:22:37;39.80;4.40
67194;DHT22;54121;53.508;49.422;2023-04-24T06:25:08;41.50;4.70
67194;DHT22;54121;53.508;49.422;2023-04-24T06:27:34;41.50;4.50
67194;DHT22;54121;53.508;49.422;2023-04-24T06:30:01;41.80;4.20
67194;DHT22;54121;53.508;49.422;2023-04-24T06:32:32;41.70;4.30
67194;DHT22;54121;53.508;49.422;2023-04-24T06:34:59;41.90;4.30
67194;DHT22;54121;53.508;49.422;2023-04-24T06:37:25;41.80;4.30
67194;DHT22;54121;53.508;49.422;2023-04-24T06:39:54;40.60;4.80
67194;DHT22;54121;53.508;49.422;2023-04-24T06:42:23;39.70;5.60
67194;DHT22;54121;53.508;49.422;2023-04-24T06:44:50;40.10;5.00
67194;DHT22;54121;53.508;49.422;2023-04-24T06:47:17;39.50;5.10
67194;DHT22;54121;53.508;49.422;2023-04-24T06:49:48;40.40;5.00
67194;DHT22;54121;53.508;49.422;2023-04-24T06:52:19;40.20;4.90
67194;DHT22;54121;53.508;49.422;2023-04-24T06:54:48;40.30;4.50
67194;DHT22;54121;53.508;49.422;2023-04-24T06:57:14;38.80;5.50
67194;DHT22;54121;53.508;49.422;2023-04-24T06:59:42;40.20;4.60
67194;DHT22;54121;53.508;49.422;2023-04-24T07:02:11;40.30;4.70
67194;DHT22;54121;53.508;49.422;2023-04-24T07:04:40;39.50;4.60
67194;DHT22;54121;53.508;49.422;2023-04-24T07:07:07;40.00;4.80
67194;DHT22;54121;53.508;49.422;2023-04-24T07:09:35;39.40;5.10
67194;DHT22;54121;53.508;49.422;2023-04-24T07:12:04;40.60;4.70
67194;DHT22;54121;53.508;49.422;2023-04-24T07:14:34;40.10;4.30
67194;DHT22;54121;53.508;49.422;2023-04-24T07:17:00;39.40;4.70
67194;DHT22;54121;53.508;49.422;2023-04-24T07:19:28;40.20;4.70
67194;DHT22;54121;53.508;49.422;2023-04-24T07:21:54;40.20;4.50
67194;DHT22;54121;53.508;49.422;2023-04-24T07:24:21;39.80;4.90
67194;DHT22;54121;53.508;49.422;2023-04-24T07:26:47;39.80;4.80
67194;DHT22;54121;53.508;49.422;2023-04-24T07:29:13;38.60;4.90
67194;DHT22;54121;53.508;49.422;2023-04-24T07:31:40;38.40;5.60
67194;DHT22;54121;53.508;49.422;2023-04-24T07:34:08;38.20;6.00
67194;DHT22;54121;53.508;49.422;2023-04-24T07:36:37;39.00;5.20
67194;DHT22;54121;53.508;49.422;2023-04-24T07:39:06;39.00;5.20
67194;DHT22;54121;53.508;49.422;2023-04-24T07:41:32;38.50;5.50
67194;DHT22;54121;53.508;49.422;2023-04-24T07:44:01;38.10;5.90
67194;DHT22;54121;53.508;49.422;2023-04-24T07:46:28;39.00;5.40
67194;DHT22;54121;53.508;49.422;2023-04-24T07:48:58;39.10;5.20
67194;DHT22;54121;53.508;49.422;2023-04-24T07:51:27;38.00;5.80
67194;DHT22;54121;53.508;49.422;2023-04-24T07:53:54;38.70;5.40
67194;DHT22;54121;53.508;49.422;2023-04-24T07:56:26;39.20;5.00
67194;DHT22;54121;53.508;49.422;2023-04-24T07:58:57;39.20;5.20
67194;DHT22;54121;53.508;49.422;2023-04-24T08:01:26;38.90;5.00
67194;DHT22;54121;53.508;49.422;2023-04-24T08:03:53;39.00;4.50
67194;DHT22;54121;53.508;49.422;2023-04-24T08:06:24;38.60;5.10
67194;DHT22;54121;53.508;49.422;2023-04-24T08:08:56;38.50;5.10
67194;DHT22;54121;53.508;49.422;2023-04-24T08:11:23;38.50;5.10
67194;DHT22;54121;53.508;49.422;2023-04-24T08:13:52;38.20;5.30
67194;DHT22;54121;53.508;49.422;2023-04-24T08:16:23;38.70;4.80
67194;DHT22;54121;53.508;49.422;2023-04-24T08:18:54;38.10;5.10
67194;DHT22;54121;53.508;49.422;2023-04-24T08:21:26;37.90;4.80
67194;DHT22;54121;53.508;49.422;2023-04-24T08:23:56;37.10;5.50
67194;DHT22;54121;53.508;49.422;2023-04-24T08:26:23;37.20;5.40
67194;DHT22;54121;53.508;49.422;2023-04-24T08:28:49;37.90;4.80
67194;DHT22;54121;53.508;49.422;2023-04-24T08:31:16;36.90;5.50
67194;DHT22;54121;53.508;49.422;2023-04-24T08:33:45;37.50;4.90
67194;DHT22;54121;53.508;49.422;2023-04-24T08:36:16;37.20;5.20
67194;DHT22;54121;53.508;49.422;2023-04-24T08:38:47;37.10;4.70
67194;DHT22;54121;53.508;49.422;2023-04-24T08:41:14;37.70;4.80
67194;DHT22;54121;53.508;49.422;2023-04-24T08:43:45;37.60;4.20
67194;DHT22;54121;53.508;49.422;2023-04-24T08:46:12;38.50;4.30
67194;DHT22;54121;53.508;49.422;2023-04-24T08:48:39;38.20;4.30
67194;DHT22;54121;53.508;49.422;2023-04-24T08:51:06;39.00;4.20
67194;DHT22;54121;53.508;49.422;2023-04-24T08:53:35;39.40;3.90
67194;DHT22;54121;53.508;49.422;2023-04-24T08:56:02;39.20;4.20
67194;DHT22;54121;53.508;49.422;2023-04-24T08:58:29;39.50;3.60
67194;DHT22;54121;53.508;49.422;2023-04-24T09:00:58;39.90;3.70
67194;DHT22;54121;53.508;49.422;2023-04-24T09:03:27;39.90;3.80
67194;DHT22;54121;53.508;49.422;2023-04-24T09:05:54;39.10;4.10
67194;DHT22;54121;53.508;49.422;2023-04-24T09:08:21;39.30;4.30
67194;DHT22;54121;53.508;49.422;2023-04-24T09:10:52;38.50;4.70
67194;DHT22;54121;53.508;49.422;2023-04-24T09:13:19;38.20;3.20
67194;DHT22;54121;53.508;49.422;2023-04-24T09:15:48;39.60;3.90
67194;DHT22;54121;53.508;49.422;2023-04-24T09:18:17;39.10;4.20
67194;DHT22;54121;53.508;49.422;2023-04-24T09:23:31;39.70;4.00
67194;DHT22;54121;53.508;49.422;2023-04-24T09:25:58;40.40;3.80
67194;DHT22;54121;53.508;49.422;2023-04-24T09:28:31;40.30;3.80
67194;DHT22;54121;53.508;49.422;2023-04-24T09:31:04;39.20;4.20
67194;DHT22;54121;53.508;49.422;2023-04-24T09:33:30;40.70;3.80
67194;DHT22;54121;53.508;49.422;2023-04-24T09:35:57;40.90;3.70
67194;DHT22;54121;53.508;49.422;2023-04-24T09:38:34;40.70;3.80
67194;DHT22;54121;53.508;49.422;2023-04-24T09:41:04;41.00;3.60
67194;DHT22;54121;53.508;49.422;2023-04-24T09:43:30;41.20;3.50
67194;DHT22;54121;53.508;49.422;2023-04-24T09:45:58;41.60;3.20
67194;DHT22;54121;53.508;49.422;2023-04-24T09:48:33;41.60;3.20
67194;DHT22;54121;53.508;49.422;2023-04-24T09:51:01;41.50;3.20
67194;DHT22;54121;53.508;49.422;2023-04-24T09:53:29;41.20;3.10
67194;DHT22;54121;53.508;49.422;2023-04-24T09:55:59;40.90;3.50
67194;DHT22;54121;53.508;49.422;2023-04-24T09:58:34;41.60;3.00
67194;DHT22;54121;53.508;49.422;2023-04-24T10:01:01;42.00;3.00
67194;DHT22;54121;53.508;49.422;2023-04-24T10:03:31;41.80;3.10
67194;DHT22;54121;53.508;49.422;2023-04-24T10:05:59;42.00;2.60
67194;DHT22;54121;53.508;49.422;2023-04-24T10:08:35;42.30;2.00
67194;DHT22;54121;53.508;49.422;2023-04-24T10:11:04;43.20;2.30
67194;DHT22;54121;53.508;49.422;2023-04-24T10:13:31;43.50;2.10
67194;DHT22;54121;53.508;49.422;2023-04-24T10:15:58;42.80;2.40
67194;DHT22;54121;53.508;49.422;2023-04-24T10:18:28;43.40;2.10
67194;DHT22;54121;53.508;49.422;2023-04-24T10:20:58;43.30;1.90
67194;DHT22;54121;53.508;49.422;2023-04-24T10:23:28;44.10;2.10
67194;DHT22;54121;53.508;49.422;2023-04-24T10:25:56;44.00;2.00
67194;DHT22;54121;53.508;49.422;2023-04-24T10:28:25;44.40;1.80
67194;DHT22;54121;53.508;49.422;2023-04-24T10:30:52;44.30;2.00
67194;DHT22;54121;53.508;49.422;2023-04-24T10:33:25;44.50;1.90
67194;DHT22;54121;53.508;49.422;2023-04-24T10:35:57;44.70;1.60
67194;DHT22;54121;53.508;49.422;2023-04-24T10:38:25;45.70;1.30
67194;DHT22;54121;53.508;49.422;2023-04-24T10:40:57;44.80;1.50
67194;DHT22;54121;53.508;49.422;2023-04-24T10:43:24;43.70;1.20
67194;DHT22;54121;53.508;49.422;2023-04-24T10:46:00;45.40;1.30
67194;DHT22;54121;53.508;49.422;2023-04-24T10:48:27;45.60;2.20
67194;DHT22;54121;53.508;49.422;2023-04-24T10:50:56;45.60;1.10
67194;DHT22;54121;53.508;49.422;2023-04-24T10:53:27;44.90;1.50
67194;DHT22;54121;53.508;49.422;2023-04-24T10:56:06;45.30;1.20
67194;DHT22;54121;53.508;49.422;2023-04-24T10:58:49;45.00;1.30
67194;DHT22;54121;53.508;49.422;2023-04-24T11:04:01;46.10;1.00
67194;DHT22;54121;53.508;49.422;2023-04-24T11:06:36;45.80;1.00
67194;DHT22;54121;53.508;49.422;2023-04-24T11:09:09;45.50;1.10
67194;DHT22;54121;53.508;49.422;2023-04-24T11:11:44;45.60;1.10
67194;DHT22;54121;53.508;49.422;2023-04-24T11:14:18;45.90;1.00
67194;DHT22;54121;53.508;49.422;2023-04-24T11:16:51;45.40;1.00
67194;DHT22;54121;53.508;49.422;2023-04-24T11:19:24;46.50;1.00
67194;DHT22;54121;53.508;49.422;2023-04-24T11:24:24;46.70;1.00
67194;DHT22;54121;53.508;49.422;2023-04-24T11:26:51;45.00;1.00
67194;DHT22;54121;53.508;49.422;2023-04-24T11:29:23;46.20;1.00
67194;DHT22;54121;53.508;49.422;2023-04-24T11:34:52;46.90;1.00
67194;DHT22;54121;53.508;49.422;2023-04-24T11:37:19;47.10;1.00
67194;DHT22;54121;53.508;49.422;2023-04-24T11:39:48;45.20;1.10
67194;DHT22;54121;53.508;49.422;2023-04-24T11:42:18;43.40;1.00
67194;DHT22;54121;53.508;49.422;2023-04-24T11:44:46;45.60;1.10
67194;DHT22;54121;53.508;49.422;2023-04-24T11:47:16;44.70;1.70
67194;DHT22;54121;53.508;49.422;2023-04-24T11:49:45;45.60;1.20
67194;DHT22;54121;53.508;49.422;2023-04-24T11:52:15;46.00;1.00
67194;DHT22;54121;53.508;49.422;2023-04-24T11:54:48;47.20;1.00
67194;DHT22;54121;53.508;49.422;2023-04-24T11:57:16;46.80;1.00
67194;DHT22;54121;53.508;49.422;2023-04-24T11:59:42;47.00;1.00
67194;DHT22;54121;53.508;49.422;2023-04-24T12:02:17;46.60;1.00
67194;DHT22;54121;53.508;49.422;2023-04-24T12:04:45;47.10;1.00
67194;DHT22;54121;53.508;49.422;2023-04-24T12:07:14;45.20;1.30
67194;DHT22;54121;53.508;49.422;2023-04-24T12:09:44;45.40;1.10
67194;DHT22;54121;53.508;49.422;2023-04-24T12:12:14;45.20;1.50
67194;DHT22;54121;53.508;49.422;2023-04-24T12:17:10;45.70;1.20
67194;DHT22;54121;53.508;49.422;2023-04-24T12:19:37;46.30;1.00
67194;DHT22;54121;53.508;49.422;2023-04-24T12:22:07;46.40;1.00
67194;DHT22;54121;53.508;49.422;2023-04-24T12:24:33;47.30;1.00
67194;DHT22;54121;53.508;49.422;2023-04-24T12:27:00;48.10;1.00
67194;DHT22;54121;53.508;49.422;2023-04-24T12:29:27;48.00;1.00
67194;DHT22;54121;53.508;49.422;2023-04-24T12:31:54;48.00;1.00
67194;DHT22;54121;53.508;49.422;2023-04-24T12:34:25;45.00;1.10
67194;DHT22;54121;53.508;49.422;2023-04-24T12:36:51;45.80;1.40
67194;DHT22;54121;53.508;49.422;2023-04-24T12:39:18;47.60;1.00
67194;DHT22;54121;53.508;49.422;2023-04-24T12:41:54;44.60;1.50
67194;DHT22;54121;53.508;49.422;2023-04-24T12:44:32;44.20;1.70
67194;DHT22;54121;53.508;49.422;2023-04-24T12:47:00;46.20;1.20
67194;DHT22;54121;53.508;49.422;2023-04-24T12:49:27;46.70;1.00
67194;DHT22;54121;53.508;49.422;2023-04-24T12:51:54;45.40;1.30
67194;DHT22;54121;53.508;49.422;2023-04-24T12:54:21;46.80;1.00
67194;DHT22;54121;53.508;49.422;2023-04-24T12:56:48;46.90;1.00
67194;DHT22;54121;53.508;49.422;2023-04-24T12:59:14;46.00;1.20
67194;DHT22;54121;53.508;49.422;2023-04-24T13:01:43;47.30;1.00
67194;DHT22;54121;53.508;49.422;2023-04-24T13:04:12;45.00;1.20
67194;DHT22;54121;53.508;49.422;2023-04-24T13:06:39;46.10;1.00
67194;DHT22;54121;53.508;49.422;2023-04-24T13:09:08;45.30;1.30
67194;DHT22;54121;53.508;49.422;2023-04-24T13:11:39;45.80;1.10
67194;DHT22;54121;53.508;49.422;2023-04-24T13:14:08;46.30;1.00
67194;DHT22;54121;53.508;49.422;2023-04-24T13:16:40;47.40;1.00
67194;DHT22;54121;53.508;49.422;2023-04-24T13:19:09;46.90;1.00
67194;DHT22;54121;53.508;49.422;2023-04-24T13:21:40;47.90;1.00
67194;DHT22;54121;53.508;49.422;2023-04-24T13:24:09;47.80;1.00
67194;DHT22;54121;53.508;49.422;2023-04-24T13:26:36;49.00;1.00
67194;DHT22;54121;53.508;49.422;2023-04-24T13:29:02;49.20;1.00
67194;DHT22;54121;53.508;49.422;2023-04-24T13:31:33;49.00;1.00
67194;DHT22;54121;53.508;49.422;2023-04-24T13:34:01;48.80;1.00
67194;DHT22;54121;53.508;49.422;2023-04-24T13:36:30;47.90;1.00
67194;DHT22;54121;53.508;49.422;2023-04-24T13:39:00;45.90;1.00
67194;DHT22;54121;53.508;49.422;2023-04-24T13:41:27;44.40;1.40
67194;DHT22;54121;53.508;49.422;2023-04-24T13:43:56;45.40;1.10
67194;DHT22;54121;53.508;49.422;2023-04-24T13:46:22;47.30;1.00
67194;DHT22;54121;53.508;49.422;2023-04-24T13:48:53;45.80;1.00
67194;DHT22;54121;53.508;49.422;2023-04-24T13:51:19;46.80;1.00
67194;DHT22;54121;53.508;49.422;2023-04-24T13:53:45;46.00;1.00
67194;DHT22;54121;53.508;49.422;2023-04-24T13:56:12;46.60;1.00
67194;DHT22;54121;53.508;49.422;2023-04-24T13:58:41;45.90;1.00
67194;DHT22;54121;53.508;49.422;2023-04-24T14:01:11;46.80;1.00
67194;DHT22;54121;53.508;49.422;2023-04-24T14:03:37;45.60;1.00
67194;DHT22;54121;53.508;49.422;2023-04-24T14:06:09;45.30;1.00
67194;DHT22;54121;53.508;49.422;2023-04-24T14:08:38;45.70;1.00
67194;DHT22;54121;53.508;49.422;2023-04-24T14:11:06;46.70;1.00
67194;DHT22;54121;53.508;49.422;2023-04-24T14:13:38;47.30;1.00
67194;DHT22;54121;53.508;49.422;2023-04-24T14:16:10;47.20;1.00
67194;DHT22;54121;53.508;49.422;2023-04-24T14:18:41;47.30;1.00
67194;DHT22;54121;53.508;49.422;2023-04-24T14:21:07;47.90;1.00
67194;DHT22;54121;53.508;49.422;2023-04-24T14:23:36;46.70;1.00
67194;DHT22;54121;53.508;49.422;2023-04-24T14:26:05;47.90;1.00
67194;DHT22;54121;53.508;49.422;2023-04-24T14:28:34;48.20;1.00
67194;DHT22;54121;53.508;49.422;2023-04-24T14:31:02;48.40;1.00
67194;DHT22;54121;53.508;49.422;2023-04-24T14:33:32;47.20;1.00
67194;DHT22;54121;53.508;49.422;2023-04-24T14:35:58;48.20;1.00
67194;DHT22;54121;53.508;49.422;2023-04-24T14:38:29;48.30;1.00
67194;DHT22;54121;53.508;49.422;2023-04-24T14:40:57;48.20;1.00
67194;DHT22;54121;53.508;49.422;2023-04-24T14:43:23;48.20;1.00
67194;DHT22;54121;53.508;49.422;2023-04-24T14:45:50;48.20;1.00
67194;DHT22;54121;53.508;49.422;2023-04-24T14:48:19;48.20;1.00
67194;DHT22;54121;53.508;49.422;2023-04-24T14:50:48;47.80;1.00
67194;DHT22;54121;53.508;49.422;2023-04-24T14:53:16;46.70;1.00
67194;DHT22;54121;53.508;49.422;2023-04-24T14:55:45;47.20;1.00
67194;DHT22;54121;53.508;49.422;2023-04-24T14:58:11;45.90;1.10
67194;DHT22;54121;53.508;49.422;2023-04-24T15:00:38;44.90;1.40
67194;DHT22;54121;53.508;49.422;2023-04-24T15:03:06;43.80;1.00
67194;DHT22;54121;53.508;49.422;2023-04-24T15:05:33;45.10;1.70
67194;DHT22;54121;53.508;49.422;2023-04-24T15:07:59;44.90;1.80
67194;DHT22;54121;53.508;49.422;2023-04-24T15:10:30;44.50;2.10
67194;DHT22;54121;53.508;49.422;2023-04-24T15:12:56;43.90;2.20
67194;DHT22;54121;53.508;49.422;2023-04-24T15:15:23;44.60;1.90
67194;DHT22;54121;53.508;49.422;2023-04-24T15:17:51;44.80;2.00
67194;DHT22;54121;53.508;49.422;2023-04-24T15:20:20;44.30;2.10
67194;DHT22;54121;53.508;49.422;2023-04-24T15:22:46;44.00;2.20
67194;DHT22;54121;53.508;49.422;2023-04-24T15:25:15;44.10;2.20
67194;DHT22;54121;53.508;49.422;2023-04-24T15:27:45;43.60;2.20
67194;DHT22;54121;53.508;49.422;2023-04-24T15:30:12;42.90;2.60
67194;DHT22;54121;53.508;49.422;2023-04-24T15:32:38;42.90;2.80
67194;DHT22;54121;53.508;49.422;2023-04-24T15:35:05;42.30;3.30
67194;DHT22;54121;53.508;49.422;2023-04-24T15:37:34;42.20;3.10
67194;DHT22;54121;53.508;49.422;2023-04-24T15:40:03;41.90;3.10
67194;DHT22;54121;53.508;49.422;2023-04-24T15:42:31;41.80;3.30
67194;DHT22;54121;53.508;49.422;2023-04-24T15:45:00;40.90;3.70
67194;DHT22;54121;53.508;49.422;2023-04-24T15:47:29;40.00;3.80
67194;DHT22;54121;53.508;49.422;2023-04-24T15:49:57;40.00;4.00